Terminal Aerodrome Forecast
Issued by NWS

Home | Current Version | Previous Version | Text Only | Print | Product List | Glossary On
Versions: 1 2 3 4 5 6 7 8 9 10 11 12
961
FTUS46 KMFR 251720
TAFRBG
TAF
KRBG 251720Z 2518/2618 VRB03KT P6SM SKC
     FM252200 36008KT P6SM SKC
     FM260300 VRB03KT P6SM SKC
     FM261000 00000KT P6SM OVC005
     FM261600 VRB03KT P6SM BKN007 BKN250=

USA.gov is the U.S. government's official web portal to all federal, state and local government web resources and services.